Hills and Dales, Indiana
Current Conditions -  °F | °C
As of 6:53 PM on Monday 24 Nov 2014 (Local Time) from KMIE Reporting Station
Overcast Overcast  
Wind Chill: 29°   Ceiling: 2700
Heat Index: 38°   Visibility: 10mi
Dew Point: 30°   Wind: 15mph
Humidity: 73%   Direction: 270°W
Pressure: 29.76"   Gusts: 28mph
Location:  40.15°N, 85.2628°W
Report Text: KMIE 242353Z 27013G24KT 10SM OVC027 03/M01 A2976 RMK AO2 SLP076 60000 T00331011 10044 20033 51044
Loading
Personal Weather Stations






























Interactive Weather Map New forecast layout! Learn more

10-Day Weather Forecast

Advertisements
Track Severe Weather on mobile